Accueil
METAR-TAF:

METAR-TAF

Aéroports :

Kingstree, Caroline du Sud, États-Unis

latitude: 33-43-02N, longitude: 079-51-25W, altitude: 20 m

Observation

Le bulletin a été fait il y a 27 minutes, à 21:55 UTC
Vent calme
Température 13°C
Humidité 58%
Pression 1021 hPa
Visibilité: 16.1 km
Ciel clair

METAR: KCKI 202155Z AUTO 00000KT 10SM CLR 13/05 A3015 RMK AO2

Heure: 17:22 (22:22 UTC)


TAF: absent

Observations et prévisions météorologiques de plus de 4000 aéroports (messages METAR et TAF).

Les stations disponibles sont représentées par des disques jaunes et rouges sur la carte.

Passer la souris dessus pour voir le nom de la station.

Cliquer dessus pour voir les observations et prévisions météorologiques.

Pour changer de carte: cliquez sur les boutons verts avec une croix noire pour zoomer, sur le bouton vert avec un tiret pour effectuer un zoom arrière, ou sur les flèches vertes pour les cartes adjacentes.


METAR-TAF: